createdAt,value
2023-05-12T00:00:13.294Z,12.70
2023-05-12T00:02:42.402Z,12.70
2023-05-12T00:05:09.583Z,12.70
2023-05-12T00:07:36.629Z,12.70
2023-05-12T00:10:03.986Z,12.70
2023-05-12T00:12:31.016Z,12.70
2023-05-12T00:14:58.036Z,12.70
2023-05-12T00:17:25.456Z,12.70
2023-05-12T00:19:52.423Z,12.70
2023-05-12T00:22:19.394Z,12.70
2023-05-12T00:24:46.441Z,12.60
2023-05-12T00:27:14.720Z,12.60
2023-05-12T00:29:41.684Z,12.60
2023-05-12T00:32:08.620Z,12.60
2023-05-12T00:34:35.575Z,12.60
2023-05-12T00:37:02.577Z,12.60
2023-05-12T00:39:29.578Z,12.60
2023-05-12T00:41:57.651Z,12.60
2023-05-12T00:44:24.792Z,12.60
2023-05-12T00:46:52.816Z,12.50
2023-05-12T00:49:20.149Z,12.50
2023-05-12T00:51:47.326Z,12.50
2023-05-12T00:54:14.501Z,12.50
2023-05-12T00:56:41.449Z,12.50
2023-05-12T00:59:09.147Z,12.50
2023-05-12T01:01:39.845Z,12.50
2023-05-12T01:04:09.680Z,12.50
2023-05-12T01:07:05.745Z,12.40
2023-05-12T01:09:33.072Z,12.50
2023-05-12T01:12:00.628Z,12.50
2023-05-12T01:14:27.794Z,12.50
2023-05-12T01:16:58.875Z,12.40
2023-05-12T01:19:40.847Z,12.40
2023-05-12T01:22:10.140Z,12.40
2023-05-12T01:24:42.907Z,12.40
2023-05-12T01:27:10.571Z,12.40
2023-05-12T01:29:38.307Z,12.40
2023-05-12T01:32:05.751Z,12.40
2023-05-12T01:34:34.135Z,12.40
2023-05-12T01:37:01.112Z,12.30
2023-05-12T01:39:28.185Z,12.30
2023-05-12T01:41:55.126Z,12.30
2023-05-12T01:44:22.532Z,12.30
2023-05-12T01:46:49.731Z,12.30
2023-05-12T01:49:16.727Z,12.30
2023-05-12T01:51:43.992Z,12.30
2023-05-12T01:54:21.277Z,12.30
2023-05-12T01:56:48.340Z,12.30
2023-05-12T01:59:15.596Z,12.30
2023-05-12T02:01:42.686Z,12.20
2023-05-12T02:04:11.189Z,12.20
2023-05-12T02:06:38.689Z,12.20
2023-05-12T02:09:06.031Z,12.20
2023-05-12T02:11:33.322Z,12.20
2023-05-12T02:14:00.552Z,12.20
2023-05-12T02:16:27.714Z,12.10
2023-05-12T02:18:54.753Z,12.20
2023-05-12T02:21:21.934Z,12.20
2023-05-12T02:23:50.934Z,12.10
2023-05-12T02:26:19.475Z,12.10
2023-05-12T02:28:46.505Z,12.10
2023-05-12T02:31:13.681Z,12.10
2023-05-12T02:33:40.752Z,12.10
2023-05-12T02:36:08.222Z,12.10
2023-05-12T02:38:35.230Z,12.10
2023-05-12T02:41:02.632Z,12.10
2023-05-12T02:43:29.747Z,12.10
2023-05-12T02:45:56.795Z,12.10
2023-05-12T02:48:23.788Z,12.10
2023-05-12T02:50:52.652Z,12.10
2023-05-12T02:53:19.688Z,12.10
2023-05-12T02:55:46.597Z,12.10
2023-05-12T02:58:13.606Z,12.10
2023-05-12T03:00:40.882Z,12.10
2023-05-12T03:03:08.192Z,12.10
2023-05-12T03:05:35.258Z,12.10
2023-05-12T03:08:02.467Z,12.00
2023-05-12T03:10:29.422Z,12.00
2023-05-12T03:12:56.385Z,12.00
2023-05-12T03:15:23.620Z,12.00
2023-05-12T03:17:51.146Z,12.00
2023-05-12T03:20:18.450Z,11.90
2023-05-12T03:22:45.881Z,11.90
2023-05-12T03:25:12.848Z,11.90
2023-05-12T03:27:39.791Z,11.80
2023-05-12T03:30:07.835Z,11.80
2023-05-12T03:32:39.247Z,11.80
2023-05-12T03:35:09.495Z,11.80
2023-05-12T03:37:36.786Z,11.80
2023-05-12T03:40:04.666Z,11.70
2023-05-12T03:42:31.923Z,11.70
2023-05-12T03:44:58.941Z,11.70
2023-05-12T03:47:27.760Z,11.70
2023-05-12T03:49:56.116Z,11.70
2023-05-12T03:52:23.525Z,11.70
2023-05-12T03:54:50.696Z,11.70
2023-05-12T03:57:18.442Z,11.60
2023-05-12T03:59:45.592Z,11.70
2023-05-12T04:02:13.180Z,11.70
2023-05-12T04:04:40.511Z,11.70
2023-05-12T04:07:07.534Z,11.60
2023-05-12T04:09:34.668Z,11.70
2023-05-12T04:12:01.670Z,11.60
2023-05-12T04:14:41.626Z,11.60
2023-05-12T04:17:09.654Z,11.70
2023-05-12T04:19:36.592Z,11.70
2023-05-12T04:22:03.854Z,11.70
2023-05-12T04:24:31.339Z,11.70
2023-05-12T04:26:58.589Z,11.60
2023-05-12T04:29:25.926Z,11.70
2023-05-12T04:31:54.439Z,11.60
2023-05-12T04:34:21.547Z,11.70
2023-05-12T04:36:49.344Z,11.60
2023-05-12T04:39:16.373Z,11.60
2023-05-12T04:41:43.342Z,11.60
2023-05-12T04:44:10.446Z,11.60
2023-05-12T04:46:37.475Z,11.60
2023-05-12T04:49:05.660Z,11.60
2023-05-12T04:51:32.737Z,11.70
2023-05-12T04:53:59.641Z,11.70
2023-05-12T04:56:26.628Z,11.70
2023-05-12T04:58:53.662Z,11.60
2023-05-12T05:01:20.575Z,11.70
2023-05-12T05:03:48.054Z,11.60
2023-05-12T05:06:15.129Z,11.60
2023-05-12T05:08:42.156Z,11.60
2023-05-12T05:11:09.376Z,11.60
2023-05-12T05:13:36.675Z,11.60
2023-05-12T05:16:03.937Z,11.60
2023-05-12T05:18:31.872Z,11.60
2023-05-12T05:20:59.369Z,11.60
2023-05-12T05:23:27.008Z,11.60
2023-05-12T05:25:54.739Z,11.60
2023-05-12T05:28:22.389Z,11.60
2023-05-12T05:30:49.679Z,11.60
2023-05-12T05:33:17.182Z,11.60
2023-05-12T05:35:44.360Z,11.60
2023-05-12T05:38:13.161Z,11.70
2023-05-12T05:40:52.205Z,11.60
2023-05-12T05:43:20.547Z,11.60
2023-05-12T05:45:49.868Z,11.70
2023-05-12T05:48:17.553Z,11.70
2023-05-12T05:50:44.718Z,11.60
2023-05-12T05:53:11.736Z,11.70
2023-05-12T05:55:38.886Z,11.70
2023-05-12T05:58:06.456Z,11.60
2023-05-12T06:00:33.559Z,11.60
2023-05-12T06:03:00.553Z,11.60
2023-05-12T06:05:27.692Z,11.60
2023-05-12T06:07:54.603Z,11.60
2023-05-12T06:10:21.808Z,11.60
2023-05-12T06:12:48.894Z,11.70
2023-05-12T06:15:16.182Z,11.60
2023-05-12T06:17:43.991Z,11.60
2023-05-12T06:20:12.948Z,11.70
2023-05-12T06:22:42.405Z,11.70
2023-05-12T06:25:10.370Z,11.70
2023-05-12T06:27:38.455Z,11.70
2023-05-12T06:30:06.513Z,11.80
2023-05-12T06:32:33.793Z,11.80
2023-05-12T06:35:00.837Z,11.80
2023-05-12T06:37:27.902Z,11.80
2023-05-12T06:40:03.088Z,11.80
2023-05-12T06:42:31.249Z,11.70
2023-05-12T06:44:58.222Z,11.80
2023-05-12T06:47:25.216Z,11.80
2023-05-12T06:49:52.244Z,11.80
2023-05-12T06:52:20.627Z,11.80
2023-05-12T06:54:47.555Z,11.80
2023-05-12T06:57:14.529Z,11.90
2023-05-12T06:59:41.478Z,11.90
2023-05-12T07:02:10.975Z,11.90
2023-05-12T07:04:37.958Z,11.90
2023-05-12T07:07:05.247Z,11.90
2023-05-12T07:09:32.434Z,11.90
2023-05-12T07:11:59.393Z,12.00
2023-05-12T07:14:26.564Z,12.00
2023-05-12T07:16:53.429Z,11.90
2023-05-12T07:19:20.367Z,11.90
2023-05-12T07:21:47.237Z,12.00
2023-05-12T07:24:14.177Z,12.00
2023-05-12T07:26:41.087Z,12.00
2023-05-12T07:29:13.433Z,12.00
2023-05-12T07:31:40.912Z,12.00
2023-05-12T07:34:08.395Z,12.00
2023-05-12T07:36:35.674Z,12.00
2023-05-12T07:39:02.676Z,12.00
2023-05-12T07:41:29.607Z,12.10
2023-05-12T07:43:56.587Z,12.10
2023-05-12T07:46:23.515Z,12.00
2023-05-12T07:48:50.871Z,12.00
2023-05-12T07:51:17.856Z,12.10
2023-05-12T07:53:44.739Z,12.10
2023-05-12T07:56:11.618Z,12.10
2023-05-12T07:58:38.573Z,12.00
2023-05-12T08:01:06.974Z,12.10
2023-05-12T08:03:35.503Z,12.10
2023-05-12T08:06:03.650Z,12.10
2023-05-12T08:08:30.606Z,12.20
2023-05-12T08:10:57.474Z,12.20
2023-05-12T08:13:24.446Z,12.20
2023-05-12T08:15:51.756Z,12.20
2023-05-12T08:18:18.730Z,12.30
2023-05-12T08:20:46.052Z,12.30
2023-05-12T08:23:13.107Z,12.30
2023-05-12T08:25:41.306Z,12.30
2023-05-12T08:28:08.321Z,12.30
2023-05-12T08:30:35.553Z,12.30
2023-05-12T08:33:03.092Z,12.40
2023-05-12T08:35:30.156Z,12.50
2023-05-12T08:37:57.437Z,12.50
2023-05-12T08:40:24.761Z,12.50
2023-05-12T08:43:18.517Z,12.60
2023-05-12T08:45:45.867Z,12.60
2023-05-12T08:48:13.641Z,12.70
2023-05-12T08:50:41.461Z,12.70
2023-05-12T08:53:11.327Z,12.60
2023-05-12T08:55:43.429Z,12.70
2023-05-12T08:58:13.460Z,12.70
2023-05-12T09:00:41.061Z,12.70
2023-05-12T09:03:08.173Z,12.70
2023-05-12T09:05:36.350Z,12.60
2023-05-12T09:08:03.396Z,12.60
2023-05-12T09:10:35.210Z,12.60
2023-05-12T09:13:03.917Z,12.60
2023-05-12T09:15:39.293Z,12.60
2023-05-12T09:18:06.508Z,12.60
2023-05-12T09:20:33.879Z,12.70
2023-05-12T09:23:11.796Z,12.70
2023-05-12T09:25:38.699Z,12.70
2023-05-12T09:28:05.656Z,12.70
2023-05-12T09:30:35.564Z,12.70
2023-05-12T09:33:06.563Z,12.80
2023-05-12T09:35:38.163Z,12.80
2023-05-12T09:38:09.019Z,12.90
2023-05-12T09:40:36.521Z,12.90
2023-05-12T09:43:06.980Z,13.00
2023-05-12T09:45:35.101Z,13.10
2023-05-12T09:48:11.825Z,13.10
2023-05-12T09:50:47.744Z,13.10
2023-05-12T09:53:15.775Z,13.10
2023-05-12T09:55:46.399Z,13.10
2023-05-12T09:58:14.947Z,13.20
2023-05-12T10:01:06.108Z,13.30
2023-05-12T10:03:30.370Z,13.30
2023-05-12T10:06:05.651Z,13.30
2023-05-12T10:09:03.997Z,13.30
2023-05-12T10:11:31.730Z,13.30
2023-05-12T10:13:59.389Z,13.30
2023-05-12T10:16:29.993Z,13.20
2023-05-12T10:18:57.229Z,13.20
2023-05-12T10:21:25.371Z,13.10
2023-05-12T10:23:52.617Z,13.10
2023-05-12T10:26:19.896Z,13.00
2023-05-12T10:28:47.267Z,13.00
2023-05-12T10:31:14.490Z,13.00
2023-05-12T10:33:41.595Z,12.90
2023-05-12T10:36:19.404Z,12.90
2023-05-12T10:38:47.971Z,12.90
2023-05-12T10:41:14.929Z,12.90
2023-05-12T10:43:43.600Z,12.90
2023-05-12T10:46:13.503Z,12.90
2023-05-12T10:48:54.892Z,12.80
2023-05-12T10:51:26.556Z,12.90
2023-05-12T10:54:13.774Z,12.90
2023-05-12T10:56:45.028Z,12.90
2023-05-12T10:59:17.288Z,12.90
2023-05-12T11:01:58.928Z,12.90
2023-05-12T11:04:43.166Z,12.90
2023-05-12T11:07:12.725Z,13.00
2023-05-12T11:09:56.584Z,13.00
2023-05-12T11:12:32.070Z,13.00
2023-05-12T11:15:03.413Z,12.90
2023-05-12T11:17:30.567Z,12.90
2023-05-12T11:19:58.186Z,12.90
2023-05-12T11:22:25.349Z,12.90
2023-05-12T11:24:53.168Z,12.80
2023-05-12T11:27:21.117Z,12.80
2023-05-12T11:30:06.656Z,12.80
2023-05-12T11:32:33.725Z,12.80
2023-05-12T11:35:10.065Z,12.80
2023-05-12T11:37:38.286Z,12.80
2023-05-12T11:40:14.253Z,12.90
2023-05-12T11:42:42.874Z,12.80
2023-05-12T11:45:19.388Z,12.80
2023-05-12T11:47:46.472Z,12.80
2023-05-12T11:50:19.755Z,12.90
2023-05-12T11:52:46.664Z,12.80
2023-05-12T11:55:19.606Z,12.80
2023-05-12T11:57:55.192Z,12.80
2023-05-12T12:00:27.061Z,12.80
2023-05-12T12:02:54.093Z,12.70
2023-05-12T12:05:21.928Z,12.70
2023-05-12T12:07:49.108Z,12.80
2023-05-12T12:10:17.415Z,12.70
2023-05-12T12:12:44.669Z,12.70
2023-05-12T12:15:12.078Z,12.70
2023-05-12T12:17:40.105Z,12.70
2023-05-12T12:20:08.089Z,12.60
2023-05-12T12:22:35.363Z,12.70
2023-05-12T12:25:03.157Z,12.60
2023-05-12T12:27:30.309Z,12.60
2023-05-12T12:29:57.444Z,12.60
2023-05-12T12:32:24.600Z,12.50
2023-05-12T12:34:52.012Z,12.60
2023-05-12T12:37:18.958Z,12.60
2023-05-12T12:39:47.870Z,12.60
2023-05-12T12:42:15.569Z,12.70
2023-05-12T12:44:43.003Z,12.70
2023-05-12T12:47:10.163Z,12.70
2023-05-12T12:52:04.054Z,12.70
2023-05-12T12:54:31.109Z,12.80
2023-05-12T12:56:58.505Z,12.80
2023-05-12T12:59:25.526Z,12.90
2023-05-12T13:01:52.760Z,12.90
2023-05-12T13:04:23.017Z,13.00
2023-05-12T13:06:50.073Z,12.90
2023-05-12T13:09:19.648Z,13.00
2023-05-12T13:11:47.479Z,12.90
2023-05-12T13:14:14.566Z,12.90
2023-05-12T13:16:41.829Z,12.90
2023-05-12T13:19:09.039Z,12.90
2023-05-12T13:21:36.151Z,12.90
2023-05-12T13:24:03.286Z,13.00
2023-05-12T13:26:30.239Z,13.00
2023-05-12T13:28:57.372Z,13.00
2023-05-12T13:31:24.445Z,13.10
2023-05-12T13:33:51.868Z,13.00
2023-05-12T13:36:18.961Z,13.10
2023-05-12T13:38:46.737Z,13.10
2023-05-12T13:41:13.765Z,13.10
2023-05-12T13:43:40.709Z,13.10
2023-05-12T13:46:08.478Z,13.20
2023-05-12T13:48:35.964Z,13.20
2023-05-12T13:51:02.858Z,13.20
2023-05-12T13:53:29.828Z,13.20
2023-05-12T13:55:56.754Z,13.10
2023-05-12T13:58:23.637Z,13.10
2023-05-12T14:00:50.588Z,13.00
2023-05-12T14:03:18.197Z,13.00
2023-05-12T14:05:45.163Z,13.00
2023-05-12T14:08:12.175Z,12.90
2023-05-12T14:10:39.053Z,12.90
2023-05-12T14:13:08.428Z,12.90
2023-05-12T14:15:48.110Z,12.80
2023-05-12T14:18:16.509Z,12.80
2023-05-12T14:20:43.436Z,12.80
2023-05-12T14:23:10.368Z,12.70
2023-05-12T14:25:37.457Z,12.70
2023-05-12T14:28:04.550Z,12.60
2023-05-12T14:30:31.567Z,12.60
2023-05-12T14:32:58.488Z,12.60
2023-05-12T14:35:27.717Z,12.60
2023-05-12T14:37:55.132Z,12.60
2023-05-12T14:40:22.490Z,12.50
2023-05-12T14:42:49.519Z,12.60
2023-05-12T14:45:16.486Z,12.50
2023-05-12T14:47:43.646Z,12.50
2023-05-12T14:50:10.937Z,12.50
2023-05-12T14:52:40.749Z,12.50
2023-05-12T14:55:11.777Z,12.40
2023-05-12T14:57:39.500Z,12.50
2023-05-12T15:00:13.402Z,12.50
2023-05-12T15:02:40.692Z,12.50
2023-05-12T15:05:08.822Z,12.40
2023-05-12T15:07:36.111Z,12.50
2023-05-12T15:10:03.276Z,12.50
2023-05-12T15:12:30.376Z,12.50
2023-05-12T15:15:00.232Z,12.50
2023-05-12T15:17:30.832Z,12.50
2023-05-12T15:19:57.747Z,12.50
2023-05-12T15:22:24.760Z,12.50
2023-05-12T15:24:51.731Z,12.40
2023-05-12T15:27:18.656Z,12.40
2023-05-12T15:29:45.791Z,12.50
2023-05-12T15:32:12.762Z,12.40
2023-05-12T15:34:39.782Z,12.50
2023-05-12T15:37:06.763Z,12.50
2023-05-12T15:39:33.668Z,12.40
2023-05-12T15:42:01.195Z,12.40
2023-05-12T15:44:28.251Z,12.40
2023-05-12T15:46:55.740Z,12.40
2023-05-12T15:49:22.824Z,12.30
2023-05-12T15:51:49.829Z,12.40
2023-05-12T15:54:16.799Z,12.30
2023-05-12T15:56:43.861Z,12.40
2023-05-12T15:59:12.230Z,12.40
2023-05-12T16:04:07.057Z,12.30
2023-05-12T16:06:34.244Z,12.30
2023-05-12T16:09:01.218Z,12.30
2023-05-12T16:11:28.483Z,12.20
2023-05-12T16:13:57.161Z,12.30
2023-05-12T16:16:24.548Z,12.20
2023-05-12T16:18:51.536Z,12.20
2023-05-12T16:21:20.068Z,12.20
2023-05-12T16:23:47.005Z,12.20
2023-05-12T16:26:13.988Z,12.20
2023-05-12T16:28:41.001Z,12.20
2023-05-12T16:31:07.912Z,12.10
2023-05-12T16:33:35.071Z,12.20
2023-05-12T16:36:02.063Z,12.20
2023-05-12T16:38:29.685Z,12.10
2023-05-12T16:40:56.677Z,12.20
2023-05-12T16:43:23.929Z,12.20
2023-05-12T16:46:01.336Z,12.10
2023-05-12T16:48:34.469Z,12.10
2023-05-12T16:51:05.890Z,12.10
2023-05-12T16:53:33.079Z,12.10
2023-05-12T16:56:00.120Z,12.10
2023-05-12T16:58:33.691Z,12.10
2023-05-12T17:01:01.210Z,12.10
2023-05-12T17:03:28.952Z,12.10
2023-05-12T17:05:56.381Z,12.10
2023-05-12T17:08:23.323Z,12.10
2023-05-12T17:10:51.435Z,12.00
2023-05-12T17:13:18.352Z,12.00
2023-05-12T17:15:45.760Z,12.00
2023-05-12T17:18:13.081Z,12.00
2023-05-12T17:20:40.947Z,12.00
2023-05-12T17:23:08.362Z,12.00
2023-05-12T17:25:36.648Z,11.90
2023-05-12T17:28:04.549Z,11.90
2023-05-12T17:30:32.038Z,12.00
2023-05-12T17:32:59.029Z,11.90
2023-05-12T17:35:26.163Z,12.00
2023-05-12T17:37:55.435Z,12.00
2023-05-12T17:40:22.910Z,12.00
2023-05-12T17:42:50.308Z,12.00
2023-05-12T17:45:17.702Z,12.00
2023-05-12T17:47:45.566Z,12.00
2023-05-12T17:50:14.930Z,12.00
2023-05-12T17:52:43.206Z,11.90
2023-05-12T17:55:10.383Z,11.90
2023-05-12T17:57:38.121Z,11.90
2023-05-12T18:00:10.008Z,11.90
2023-05-12T18:02:43.682Z,11.80
2023-05-12T18:05:10.847Z,11.80
2023-05-12T18:07:37.905Z,11.90
2023-05-12T18:10:07.144Z,11.80
2023-05-12T18:12:34.090Z,11.80
2023-05-12T18:15:01.055Z,11.80
2023-05-12T18:17:28.290Z,11.80
2023-05-12T18:19:55.538Z,11.80
2023-05-12T18:22:22.665Z,11.80
2023-05-12T18:24:50.970Z,11.80
2023-05-12T18:27:18.070Z,11.70
2023-05-12T18:29:45.024Z,11.80
2023-05-12T18:32:11.965Z,11.70
2023-05-12T18:34:39.026Z,11.70
2023-05-12T18:37:05.983Z,11.70
2023-05-12T18:39:33.139Z,11.70
2023-05-12T18:42:00.164Z,11.70
2023-05-12T18:44:29.648Z,11.70
2023-05-12T18:46:56.781Z,11.60
2023-05-12T18:49:23.780Z,11.70
2023-05-12T18:51:50.752Z,11.60
2023-05-12T18:54:17.768Z,11.60
2023-05-12T18:56:44.726Z,11.60
2023-05-12T18:59:11.964Z,11.60
2023-05-12T19:01:38.886Z,11.50
2023-05-12T19:04:10.493Z,11.60
2023-05-12T19:06:37.457Z,11.50
2023-05-12T19:09:05.138Z,11.50
2023-05-12T19:11:32.064Z,11.50
2023-05-12T19:13:59.100Z,11.50
2023-05-12T19:16:26.034Z,11.50
2023-05-12T19:18:53.029Z,11.50
2023-05-12T19:21:20.089Z,11.50
2023-05-12T19:23:47.188Z,11.50
2023-05-12T19:26:14.114Z,11.40
2023-05-12T19:28:41.020Z,11.50
2023-05-12T19:31:07.992Z,11.40
2023-05-12T19:33:35.308Z,11.50
2023-05-12T19:36:02.404Z,11.40
2023-05-12T19:38:29.289Z,11.40
2023-05-12T19:40:56.342Z,11.40
2023-05-12T19:43:23.261Z,11.40
2023-05-12T19:45:50.187Z,11.30
2023-05-12T19:48:17.118Z,11.30
2023-05-12T19:50:44.066Z,11.30
2023-05-12T19:53:11.080Z,11.30
2023-05-12T19:55:38.006Z,11.30
2023-05-12T19:58:04.990Z,11.30
2023-05-12T20:00:31.980Z,11.30
2023-05-12T20:02:59.058Z,11.30
2023-05-12T20:05:26.545Z,11.30
2023-05-12T20:07:53.472Z,11.30
2023-05-12T20:10:20.725Z,11.30
2023-05-12T20:12:47.744Z,11.20
2023-05-12T20:15:14.689Z,11.20
2023-05-12T20:17:41.700Z,11.20
2023-05-12T20:20:11.083Z,11.20
2023-05-12T20:22:39.015Z,11.20
2023-05-12T20:25:06.191Z,11.20
2023-05-12T20:27:33.353Z,11.10
2023-05-12T20:30:02.606Z,11.10
2023-05-12T20:32:29.959Z,11.10
2023-05-12T20:34:57.023Z,11.10
2023-05-12T20:37:23.984Z,11.10
2023-05-12T20:39:51.051Z,11.10
2023-05-12T20:42:18.049Z,11.10
2023-05-12T20:44:45.090Z,11.00
2023-05-12T20:47:13.154Z,11.10
2023-05-12T20:49:40.347Z,11.00
2023-05-12T20:52:07.877Z,11.00
2023-05-12T20:54:34.919Z,10.90
2023-05-12T20:57:05.160Z,10.90
2023-05-12T20:59:32.189Z,10.90
2023-05-12T21:02:01.608Z,10.90
2023-05-12T21:04:28.813Z,10.90
2023-05-12T21:06:56.008Z,10.90
2023-05-12T21:09:23.043Z,10.90
2023-05-12T21:11:50.032Z,10.90
2023-05-12T21:14:16.977Z,10.90
2023-05-12T21:16:43.920Z,10.90
2023-05-12T21:19:11.025Z,10.90
2023-05-12T21:21:38.078Z,10.80
2023-05-12T21:24:05.166Z,10.80
2023-05-12T21:26:33.108Z,10.80
2023-05-12T21:29:02.959Z,10.80
2023-05-12T21:31:30.423Z,10.80
2023-05-12T21:33:57.407Z,10.80
2023-05-12T21:36:24.285Z,10.80
2023-05-12T21:38:51.217Z,10.70
2023-05-12T21:41:18.210Z,10.80
2023-05-12T21:43:45.096Z,10.70
2023-05-12T21:46:12.172Z,10.70
2023-05-12T21:48:39.265Z,10.70
2023-05-12T21:51:06.719Z,10.70
2023-05-12T21:53:33.762Z,10.70
2023-05-12T21:56:00.763Z,10.70
2023-05-12T21:58:28.358Z,10.70
2023-05-12T22:00:55.489Z,10.60
2023-05-12T22:03:23.002Z,10.60
2023-05-12T22:05:50.151Z,10.60
2023-05-12T22:08:17.484Z,10.60
2023-05-12T22:10:44.573Z,10.60
2023-05-12T22:13:11.563Z,10.60
2023-05-12T22:15:38.572Z,10.60
2023-05-12T22:18:06.075Z,10.60
2023-05-12T22:20:33.092Z,10.60
2023-05-12T22:23:03.365Z,10.60
2023-05-12T22:25:30.579Z,10.60
2023-05-12T22:27:57.612Z,10.50
2023-05-12T22:30:24.592Z,10.50
2023-05-12T22:32:51.779Z,10.50
2023-05-12T22:35:18.908Z,10.50
2023-05-12T22:37:45.968Z,10.50
2023-05-12T22:40:12.990Z,10.50
2023-05-12T22:42:39.922Z,10.50
2023-05-12T22:45:07.260Z,10.50
2023-05-12T22:47:35.919Z,10.40
2023-05-12T22:50:02.994Z,10.40
2023-05-12T22:52:29.952Z,10.40
2023-05-12T22:54:56.941Z,10.30
2023-05-12T22:57:23.951Z,10.40
2023-05-12T22:59:51.511Z,10.30
2023-05-12T23:02:18.459Z,10.30
2023-05-12T23:04:45.451Z,10.40
2023-05-12T23:07:12.373Z,10.40
2023-05-12T23:09:39.929Z,10.30
2023-05-12T23:12:07.283Z,10.30
2023-05-12T23:14:34.265Z,10.30
2023-05-12T23:17:01.407Z,10.30
2023-05-12T23:19:28.546Z,10.40
2023-05-12T23:21:55.566Z,10.30
2023-05-12T23:24:22.806Z,10.30
2023-05-12T23:27:01.751Z,10.30
2023-05-12T23:29:29.949Z,10.30
2023-05-12T23:31:58.872Z,10.30
2023-05-12T23:34:26.084Z,10.30
2023-05-12T23:36:53.080Z,10.30
2023-05-12T23:39:19.944Z,10.30
2023-05-12T23:41:46.973Z,10.30
2023-05-12T23:44:13.967Z,10.30
2023-05-12T23:46:41.115Z,10.30
2023-05-12T23:49:08.032Z,10.30
2023-05-12T23:51:35.748Z,10.30
2023-05-12T23:54:02.687Z,10.30
2023-05-12T23:56:29.596Z,10.40
2023-05-12T23:58:56.703Z,10.30
